createdAt,value
2023-02-12T00:00:36.495Z,7.71
2023-02-12T00:03:04.676Z,7.59
2023-02-12T00:05:34.086Z,7.74
2023-02-12T00:08:02.636Z,7.78
2023-02-12T00:10:30.664Z,7.81
2023-02-12T00:12:58.687Z,7.70
2023-02-12T00:15:26.758Z,7.74
2023-02-12T00:17:54.784Z,7.88
2023-02-12T00:20:22.827Z,7.83
2023-02-12T00:22:52.300Z,7.85
2023-02-12T00:25:20.821Z,7.88
2023-02-12T00:27:48.826Z,7.84
2023-02-12T00:30:17.302Z,7.80
2023-02-12T00:32:46.564Z,7.77
2023-02-12T00:35:14.613Z,7.68
2023-02-12T00:37:43.038Z,7.72
2023-02-12T00:40:13.504Z,7.72
2023-02-12T00:42:41.524Z,7.65
2023-02-12T00:45:10.581Z,7.63
2023-02-12T00:47:38.607Z,7.47
2023-02-12T00:50:08.013Z,7.31
2023-02-12T00:52:36.246Z,7.28
2023-02-12T00:55:04.918Z,7.34
2023-02-12T00:57:34.574Z,7.32
2023-02-12T01:00:02.810Z,7.43
2023-02-12T01:02:31.398Z,7.40
2023-02-12T01:04:59.816Z,7.43
2023-02-12T01:07:27.879Z,7.29
2023-02-12T01:09:55.924Z,7.28
2023-02-12T01:12:23.980Z,7.44
2023-02-12T01:14:53.744Z,7.54
2023-02-12T01:17:22.028Z,7.65
2023-02-12T01:19:50.685Z,7.63
2023-02-12T01:22:18.854Z,7.52
2023-02-12T01:24:47.280Z,7.63
2023-02-12T01:27:15.316Z,7.70
2023-02-12T01:29:44.720Z,7.53
2023-02-12T01:32:14.682Z,7.67
2023-02-12T01:34:42.825Z,7.67
2023-02-12T01:37:10.859Z,7.60
2023-02-12T01:39:39.136Z,7.63
2023-02-12T01:42:07.284Z,7.65
2023-02-12T01:44:36.152Z,7.70
2023-02-12T01:47:06.887Z,7.46
2023-02-12T01:49:37.788Z,7.41
2023-02-12T01:52:07.434Z,7.41
2023-02-12T01:54:36.090Z,7.31
2023-02-12T01:57:04.411Z,7.33
2023-02-12T01:59:32.555Z,7.39
2023-02-12T02:02:00.669Z,7.49
2023-02-12T02:04:29.981Z,7.58
2023-02-12T02:07:00.483Z,7.60
2023-02-12T02:09:28.648Z,7.56
2023-02-12T02:12:13.892Z,7.62
2023-02-12T02:14:42.223Z,7.51
2023-02-12T02:17:45.574Z,7.61
2023-02-12T02:20:35.176Z,7.56
2023-02-12T02:23:11.543Z,7.67
2023-02-12T02:25:58.974Z,7.65
2023-02-12T02:28:40.821Z,7.63
2023-02-12T02:31:11.339Z,7.62
2023-02-12T02:33:41.523Z,7.66
2023-02-12T02:36:17.197Z,7.64
2023-02-12T02:38:47.598Z,7.67
2023-02-12T02:41:17.898Z,7.71
2023-02-12T02:43:47.213Z,7.80
2023-02-12T02:46:19.353Z,7.73
2023-02-12T02:48:49.320Z,7.80
2023-02-12T02:51:19.783Z,7.65
2023-02-12T02:53:50.377Z,7.70
2023-02-12T02:56:20.012Z,7.68
2023-02-12T02:58:49.430Z,7.58
2023-02-12T03:01:19.936Z,7.43
2023-02-12T03:03:50.352Z,7.68
2023-02-12T03:06:21.679Z,7.66
2023-02-12T03:08:54.467Z,7.48
2023-02-12T03:11:24.985Z,7.49
2023-02-12T03:13:55.578Z,7.60
2023-02-12T03:16:26.966Z,7.73
2023-02-12T03:18:56.063Z,7.72
2023-02-12T03:21:27.336Z,7.86
2023-02-12T03:23:58.400Z,7.76
2023-02-12T03:26:30.219Z,7.82
2023-02-12T03:28:58.268Z,7.60
2023-02-12T03:31:31.624Z,7.67
2023-02-12T03:34:05.858Z,7.72
2023-02-12T03:36:37.133Z,7.70
2023-02-12T03:39:08.028Z,7.67
2023-02-12T03:41:40.354Z,7.59
2023-02-12T03:44:12.256Z,7.68
2023-02-12T03:46:42.669Z,7.66
2023-02-12T03:49:11.850Z,7.62
2023-02-12T03:51:40.855Z,7.64
2023-02-12T03:54:09.525Z,7.65
2023-02-12T03:56:39.731Z,7.78
2023-02-12T03:59:07.791Z,7.79
2023-02-12T04:01:35.813Z,7.78
2023-02-12T04:04:05.843Z,7.83
2023-02-12T04:06:34.367Z,7.73
2023-02-12T04:09:05.000Z,7.75
2023-02-12T04:11:37.765Z,7.76
2023-02-12T04:14:14.494Z,7.79
2023-02-12T04:16:45.265Z,7.76
2023-02-12T04:19:16.320Z,7.83
2023-02-12T04:21:51.364Z,7.83
2023-02-12T04:24:20.084Z,7.82
2023-02-12T04:26:50.825Z,7.77
2023-02-12T04:29:20.673Z,7.79
2023-02-12T04:31:50.967Z,7.76
2023-02-12T04:34:23.029Z,7.59
2023-02-12T04:36:52.125Z,7.64
2023-02-12T04:39:21.629Z,7.59
2023-02-12T04:41:49.782Z,7.56
2023-02-12T04:44:19.568Z,7.59
2023-02-12T04:46:47.703Z,7.65
2023-02-12T04:49:17.281Z,7.66
2023-02-12T04:51:47.483Z,7.64
2023-02-12T04:54:15.586Z,7.67
2023-02-12T04:56:43.701Z,7.76
2023-02-12T04:59:12.026Z,7.76
2023-02-12T05:01:40.280Z,7.81
2023-02-12T05:04:08.927Z,7.66
2023-02-12T05:06:37.437Z,7.72
2023-02-12T05:09:06.856Z,7.72
2023-02-12T05:11:34.977Z,7.75
2023-02-12T05:14:03.100Z,7.61
2023-02-12T05:16:31.629Z,7.69
2023-02-12T05:18:59.725Z,7.78
2023-02-12T05:21:27.799Z,7.78
2023-02-12T05:23:56.295Z,7.83
2023-02-12T05:26:25.846Z,7.80
2023-02-12T05:28:53.917Z,7.78
2023-02-12T05:31:22.407Z,7.89
2023-02-12T05:33:50.585Z,7.78
2023-02-12T05:36:19.640Z,7.74
2023-02-12T05:38:47.829Z,7.85
2023-02-12T05:41:16.686Z,7.86
2023-02-12T05:43:49.241Z,7.83
2023-02-12T05:46:17.940Z,7.91
2023-02-12T05:48:46.196Z,7.75
2023-02-12T05:51:15.247Z,7.74
2023-02-12T05:53:43.415Z,7.64
2023-02-12T05:56:12.636Z,7.61
2023-02-12T05:58:40.664Z,7.71
2023-02-12T06:01:14.343Z,7.69
2023-02-12T06:03:42.467Z,7.63
2023-02-12T06:06:10.812Z,7.60
2023-02-12T06:08:38.866Z,7.58
2023-02-12T06:11:07.956Z,7.68
2023-02-12T06:13:35.942Z,7.64
2023-02-12T06:16:04.154Z,7.61
2023-02-12T06:18:33.802Z,7.63
2023-02-12T06:21:02.097Z,7.63
2023-02-12T06:23:30.164Z,7.63
2023-02-12T06:25:58.565Z,7.55
2023-02-12T06:28:26.800Z,7.62
2023-02-12T06:30:54.894Z,7.66
2023-02-12T06:33:22.936Z,7.53
2023-02-12T06:35:53.731Z,7.69
2023-02-12T06:38:22.993Z,7.68
2023-02-12T06:40:51.090Z,7.68
2023-02-12T06:43:20.585Z,7.72
2023-02-12T06:45:48.610Z,7.65
2023-02-12T06:48:16.770Z,7.72
2023-02-12T06:50:44.825Z,7.75
2023-02-12T06:53:14.262Z,7.56
2023-02-12T06:55:42.260Z,7.56
2023-02-12T06:58:10.250Z,7.40
2023-02-12T07:00:38.359Z,7.64
2023-02-12T07:03:06.450Z,7.71
2023-02-12T07:05:37.913Z,7.76
2023-02-12T07:08:05.937Z,7.72
2023-02-12T07:10:36.128Z,7.66
2023-02-12T07:13:05.863Z,7.56
2023-02-12T07:15:34.039Z,7.60
2023-02-12T07:18:02.147Z,7.69
2023-02-12T07:20:30.500Z,7.60
2023-02-12T07:22:58.593Z,7.57
2023-02-12T07:25:26.669Z,7.62
2023-02-12T07:27:56.175Z,7.64
2023-02-12T07:30:24.410Z,7.47
2023-02-12T07:32:52.501Z,7.41
2023-02-12T07:35:20.567Z,7.66
2023-02-12T07:37:48.656Z,7.63
2023-02-12T07:40:19.018Z,7.61
2023-02-12T07:42:50.023Z,7.66
2023-02-12T07:45:21.793Z,7.68
2023-02-12T07:47:50.165Z,7.71
2023-02-12T07:50:22.482Z,7.79
2023-02-12T07:52:50.730Z,7.64
2023-02-12T07:55:20.203Z,7.74
2023-02-12T07:57:48.259Z,7.79
2023-02-12T08:00:17.382Z,7.90
2023-02-12T08:02:52.297Z,7.92
2023-02-12T08:05:20.366Z,7.64
2023-02-12T08:07:49.132Z,7.56
2023-02-12T08:10:20.174Z,7.83
2023-02-12T08:12:48.189Z,7.79
2023-02-12T08:15:18.175Z,7.58
2023-02-12T08:17:47.705Z,7.82
2023-02-12T08:20:16.302Z,7.82
2023-02-12T08:22:44.451Z,7.88
2023-02-12T08:25:13.965Z,7.92
2023-02-12T08:27:42.796Z,7.92
2023-02-12T08:30:15.520Z,7.91
2023-02-12T08:32:43.642Z,8.00
2023-02-12T08:35:13.056Z,7.91
2023-02-12T08:37:41.485Z,8.13
2023-02-12T08:40:10.605Z,8.05
2023-02-12T08:42:38.680Z,8.08
2023-02-12T08:45:07.164Z,8.12
2023-02-12T08:47:35.213Z,8.09
2023-02-12T08:50:03.836Z,8.19
2023-02-12T08:52:33.812Z,8.20
2023-02-12T08:55:02.697Z,8.26
2023-02-12T08:57:31.353Z,8.27
2023-02-12T08:59:59.905Z,8.36
2023-02-12T09:02:27.996Z,8.47
2023-02-12T09:04:56.186Z,8.50
2023-02-12T09:07:24.194Z,8.30
2023-02-12T09:09:54.187Z,8.47
2023-02-12T09:12:22.399Z,8.24
2023-02-12T09:14:51.893Z,8.40
2023-02-12T09:17:19.999Z,8.45
2023-02-12T09:19:48.115Z,8.39
2023-02-12T09:22:16.191Z,8.40
2023-02-12T09:24:44.341Z,8.43
2023-02-12T09:27:13.799Z,8.33
2023-02-12T09:29:41.871Z,8.31
2023-02-12T09:32:10.554Z,8.66
2023-02-12T09:34:38.646Z,8.60
2023-02-12T09:37:06.905Z,8.61
2023-02-12T09:39:35.121Z,8.73
2023-02-12T09:42:29.262Z,8.44
2023-02-12T09:44:59.975Z,8.49
2023-02-12T09:47:30.263Z,8.79
2023-02-12T09:50:12.389Z,8.83
2023-02-12T09:52:40.624Z,8.83
2023-02-12T09:55:15.489Z,8.73
2023-02-12T09:57:44.886Z,8.71
2023-02-12T10:00:16.545Z,8.90
2023-02-12T10:02:44.570Z,8.62
2023-02-12T10:05:17.136Z,8.83
2023-02-12T10:07:56.558Z,9.01
2023-02-12T10:10:34.183Z,9.02
2023-02-12T10:13:06.036Z,9.03
2023-02-12T10:15:39.100Z,8.91
2023-02-12T10:18:19.286Z,8.95
2023-02-12T10:21:05.638Z,9.02
2023-02-12T10:23:52.918Z,9.09
2023-02-12T10:26:22.449Z,9.19
2023-02-12T10:28:52.546Z,9.10
2023-02-12T10:31:28.508Z,9.44
2023-02-12T10:33:57.315Z,9.35
2023-02-12T10:36:32.773Z,9.54
2023-02-12T10:39:03.829Z,9.32
2023-02-12T10:41:32.010Z,9.22
2023-02-12T10:44:02.069Z,9.51
2023-02-12T10:46:31.605Z,9.50
2023-02-12T10:48:59.853Z,9.60
2023-02-12T10:51:42.863Z,9.64
2023-02-12T10:54:33.664Z,9.74
2023-02-12T10:57:01.881Z,9.37
2023-02-12T10:59:31.311Z,9.47
2023-02-12T11:01:59.284Z,9.72
2023-02-12T11:04:30.331Z,9.43
2023-02-12T11:06:59.721Z,9.67
2023-02-12T11:09:35.206Z,9.71
2023-02-12T11:12:03.370Z,9.75
2023-02-12T11:14:32.797Z,9.78
2023-02-12T11:17:01.556Z,9.56
2023-02-12T11:19:30.460Z,10.04
2023-02-12T11:22:08.985Z,9.83
2023-02-12T11:24:37.547Z,10.12
2023-02-12T11:27:16.723Z,9.73
2023-02-12T11:29:48.939Z,9.71
2023-02-12T11:32:17.767Z,9.76
2023-02-12T11:34:45.764Z,9.97
2023-02-12T11:37:16.720Z,9.88
2023-02-12T11:39:47.718Z,9.97
2023-02-12T11:42:17.668Z,10.10
2023-02-12T11:44:50.184Z,9.89
2023-02-12T11:47:22.216Z,9.99
2023-02-12T11:49:51.320Z,10.05
2023-02-12T11:52:22.570Z,10.29
2023-02-12T11:54:52.228Z,10.47
2023-02-12T11:57:39.963Z,10.07
2023-02-12T12:00:13.778Z,10.14
2023-02-12T12:02:43.789Z,9.98
2023-02-12T12:05:14.174Z,10.22
2023-02-12T12:07:44.455Z,10.26
2023-02-12T12:10:14.766Z,10.15
2023-02-12T12:12:44.648Z,10.40
2023-02-12T12:15:35.591Z,10.45
2023-02-12T12:18:25.612Z,10.51
2023-02-12T12:20:55.391Z,10.27
2023-02-12T12:23:25.591Z,10.53
2023-02-12T12:25:55.834Z,9.83
2023-02-12T12:28:30.375Z,10.33
2023-02-12T12:31:07.150Z,10.35
2023-02-12T12:33:39.588Z,10.30
2023-02-12T12:36:28.275Z,10.42
2023-02-12T12:38:58.628Z,10.20
2023-02-12T12:41:30.391Z,10.28
2023-02-12T12:44:06.373Z,10.39
2023-02-12T12:46:48.479Z,10.14
2023-02-12T12:49:30.256Z,10.17
2023-02-12T12:52:05.829Z,10.37
2023-02-12T12:54:53.476Z,10.39
2023-02-12T12:57:25.032Z,10.17
2023-02-12T13:00:14.910Z,10.24
2023-02-12T13:03:07.410Z,10.34
2023-02-12T13:06:00.487Z,10.32
2023-02-12T13:08:49.852Z,10.05
2023-02-12T13:11:24.434Z,10.43
2023-02-12T13:14:08.403Z,10.00
2023-02-12T13:16:38.717Z,10.04
2023-02-12T13:19:13.718Z,10.14
2023-02-12T13:21:44.083Z,10.28
2023-02-12T13:24:18.478Z,10.13
2023-02-12T13:26:50.501Z,10.22
2023-02-12T13:29:22.534Z,10.19
2023-02-12T13:31:52.012Z,10.34
2023-02-12T13:34:21.965Z,10.33
2023-02-12T13:36:49.959Z,10.32
2023-02-12T13:39:24.019Z,10.10
2023-02-12T13:41:59.200Z,10.37
2023-02-12T13:44:31.825Z,10.28
2023-02-12T13:47:04.012Z,10.08
2023-02-12T13:49:39.161Z,10.17
2023-02-12T13:52:09.341Z,10.10
2023-02-12T13:54:51.046Z,10.28
2023-02-12T13:57:20.835Z,10.06
2023-02-12T13:59:50.072Z,10.00
2023-02-12T14:02:46.068Z,10.20
2023-02-12T14:05:22.305Z,10.25
2023-02-12T14:07:51.381Z,10.12
2023-02-12T14:10:25.225Z,9.97
2023-02-12T14:12:53.894Z,10.02
2023-02-12T14:15:31.005Z,9.91
2023-02-12T14:18:06.038Z,9.99
2023-02-12T14:20:35.788Z,9.93
2023-02-12T14:23:28.180Z,9.94
2023-02-12T14:26:00.861Z,10.01
2023-02-12T14:28:34.708Z,9.91
2023-02-12T14:31:37.087Z,9.67
2023-02-12T14:34:51.899Z,9.88
2023-02-12T14:37:38.111Z,9.72
2023-02-12T14:40:44.396Z,9.93
2023-02-12T14:43:33.029Z,10.01
2023-02-12T14:46:32.310Z,10.00
2023-02-12T14:49:02.047Z,9.86
2023-02-12T14:51:36.433Z,10.01
2023-02-12T14:54:06.004Z,9.75
2023-02-12T14:56:37.871Z,9.79
2023-02-12T14:59:06.257Z,9.87
2023-02-12T15:01:36.326Z,9.80
2023-02-12T15:04:24.701Z,9.66
2023-02-12T15:06:54.093Z,9.75
2023-02-12T15:09:27.983Z,9.71
2023-02-12T15:12:04.272Z,9.71
2023-02-12T15:14:33.107Z,9.63
2023-02-12T15:17:03.724Z,9.67
2023-02-12T15:19:43.072Z,9.58
2023-02-12T15:22:22.666Z,9.64
2023-02-12T15:24:52.568Z,9.65
2023-02-12T15:27:20.938Z,9.64
2023-02-12T15:29:50.495Z,9.68
2023-02-12T15:32:23.040Z,9.62
2023-02-12T15:34:51.636Z,9.43
2023-02-12T15:37:22.593Z,9.64
2023-02-12T15:39:53.342Z,9.65
2023-02-12T15:42:26.458Z,9.56
2023-02-12T15:45:02.709Z,9.50
2023-02-12T15:47:30.699Z,9.36
2023-02-12T15:50:00.830Z,9.41
2023-02-12T15:52:34.773Z,9.27
2023-02-12T15:55:05.027Z,9.25
2023-02-12T15:57:33.252Z,9.17
2023-02-12T16:00:05.640Z,9.13
2023-02-12T16:02:34.536Z,9.29
2023-02-12T16:05:04.534Z,9.27
2023-02-12T16:07:35.677Z,9.19
2023-02-12T16:10:05.715Z,9.03
2023-02-12T16:12:36.974Z,9.04
2023-02-12T16:15:05.437Z,9.01
2023-02-12T16:17:37.048Z,8.92
2023-02-12T16:20:06.740Z,9.14
2023-02-12T16:22:35.696Z,8.82
2023-02-12T16:25:06.094Z,8.76
2023-02-12T16:27:35.454Z,8.78
2023-02-12T16:30:25.289Z,8.86
2023-02-12T16:33:04.972Z,8.93
2023-02-12T16:35:34.341Z,8.88
2023-02-12T16:38:04.073Z,8.75
2023-02-12T16:40:37.489Z,8.76
2023-02-12T16:43:25.685Z,8.62
2023-02-12T16:45:56.035Z,8.66
2023-02-12T16:48:25.317Z,8.60
2023-02-12T16:50:56.187Z,8.50
2023-02-12T16:53:35.587Z,8.59
2023-02-12T16:56:06.034Z,8.65
2023-02-12T16:58:35.038Z,8.52
2023-02-12T17:01:05.156Z,8.66
2023-02-12T17:03:33.714Z,8.45
2023-02-12T17:06:02.272Z,8.57
2023-02-12T17:08:30.586Z,8.61
2023-02-12T17:10:58.609Z,8.57
2023-02-12T17:13:28.132Z,8.47
2023-02-12T17:15:57.231Z,8.50
2023-02-12T17:18:25.652Z,8.54
2023-02-12T17:20:55.226Z,8.70
2023-02-12T17:23:23.244Z,8.83
2023-02-12T17:25:51.370Z,8.73
2023-02-12T17:28:19.516Z,8.82
2023-02-12T17:30:50.481Z,8.66
2023-02-12T17:33:19.774Z,8.65
2023-02-12T17:35:48.024Z,8.78
2023-02-12T17:38:15.978Z,8.68
2023-02-12T17:40:44.479Z,8.59
2023-02-12T17:43:12.535Z,8.80
2023-02-12T17:45:43.166Z,8.84
2023-02-12T17:48:13.156Z,8.78
2023-02-12T17:50:41.656Z,8.81
2023-02-12T17:53:09.814Z,8.84
2023-02-12T17:55:39.343Z,8.83
2023-02-12T17:58:07.745Z,8.70
2023-02-12T18:00:35.817Z,8.89
2023-02-12T18:03:04.466Z,8.79
2023-02-12T18:05:33.880Z,8.71
2023-02-12T18:08:03.646Z,8.76
2023-02-12T18:10:31.793Z,8.77
2023-02-12T18:12:59.864Z,8.77
2023-02-12T18:15:28.664Z,8.79
2023-02-12T18:17:56.936Z,8.67
2023-02-12T18:20:24.949Z,8.71
2023-02-12T18:22:54.943Z,8.67
2023-02-12T18:25:23.554Z,8.58
2023-02-12T18:27:51.823Z,8.70
2023-02-12T18:30:20.374Z,8.69
2023-02-12T18:32:48.463Z,8.52
2023-02-12T18:35:16.620Z,8.58
2023-02-12T18:37:44.581Z,8.71
2023-02-12T18:40:14.208Z,8.59
2023-02-12T18:42:42.625Z,8.60
2023-02-12T18:45:11.066Z,8.45
2023-02-12T18:47:39.073Z,8.40
2023-02-12T18:50:08.880Z,8.40
2023-02-12T18:52:37.518Z,8.48
2023-02-12T18:55:06.284Z,8.53
2023-02-12T18:57:36.331Z,8.50
2023-02-12T19:00:05.260Z,8.45
2023-02-12T19:02:33.382Z,8.39
2023-02-12T19:05:01.507Z,8.36
2023-02-12T19:07:29.465Z,8.25
2023-02-12T19:09:57.461Z,8.40
2023-02-12T19:12:26.032Z,8.41
2023-02-12T19:14:55.480Z,8.46
2023-02-12T19:17:23.535Z,8.39
2023-02-12T19:19:51.984Z,8.37
2023-02-12T19:22:20.319Z,8.39
2023-02-12T19:24:51.480Z,8.39
2023-02-12T19:27:19.913Z,8.34
2023-02-12T19:29:48.106Z,8.48
2023-02-12T19:32:18.095Z,8.27
2023-02-12T19:34:46.584Z,8.35
2023-02-12T19:37:14.638Z,8.31
2023-02-12T19:39:42.712Z,8.48
2023-02-12T19:42:12.695Z,8.37
2023-02-12T19:44:41.113Z,8.34
2023-02-12T19:47:09.708Z,8.38
2023-02-12T19:49:39.296Z,8.49
2023-02-12T19:52:07.391Z,8.47
2023-02-12T19:54:35.803Z,8.53
2023-02-12T19:57:09.165Z,8.40
2023-02-12T19:59:37.473Z,8.30
2023-02-12T20:02:06.104Z,8.43
2023-02-12T20:04:34.240Z,8.47
2023-02-12T20:07:03.737Z,8.40
2023-02-12T20:09:31.819Z,8.54
2023-02-12T20:12:00.140Z,8.37
2023-02-12T20:14:28.168Z,8.41
2023-02-12T20:16:57.451Z,8.47
2023-02-12T20:19:28.297Z,8.40
2023-02-12T20:21:57.649Z,8.58
2023-02-12T20:24:27.558Z,8.47
2023-02-12T20:26:56.088Z,8.62
2023-02-12T20:29:24.498Z,8.30
2023-02-12T20:31:52.922Z,8.49
2023-02-12T20:34:22.150Z,8.53
2023-02-12T20:36:50.339Z,8.50
2023-02-12T20:39:19.465Z,8.56
2023-02-12T20:41:49.114Z,8.43
2023-02-12T20:44:20.079Z,8.47
2023-02-12T20:46:52.495Z,8.47
2023-02-12T20:49:24.421Z,8.57
2023-02-12T20:51:52.717Z,8.62
2023-02-12T20:54:21.122Z,8.61
2023-02-12T20:56:51.492Z,8.74
2023-02-12T20:59:20.260Z,8.54
2023-02-12T21:01:48.382Z,8.45
2023-02-12T21:04:18.046Z,8.44
2023-02-12T21:06:47.607Z,8.47
2023-02-12T21:09:15.745Z,8.48
2023-02-12T21:11:45.815Z,8.48
2023-02-12T21:14:24.276Z,8.42
2023-02-12T21:16:52.569Z,8.34
2023-02-12T21:19:21.269Z,8.37
2023-02-12T21:21:49.584Z,8.43
2023-02-12T21:24:20.301Z,8.48
2023-02-12T21:26:48.833Z,8.41
2023-02-12T21:29:18.341Z,8.38
2023-02-12T21:31:47.887Z,8.44
2023-02-12T21:34:17.464Z,8.30
2023-02-12T21:36:46.347Z,8.47
2023-02-12T21:39:15.470Z,8.41
2023-02-12T21:41:43.739Z,8.49
2023-02-12T21:44:13.089Z,8.28
2023-02-12T21:46:42.977Z,8.40
2023-02-12T21:49:11.980Z,8.38
2023-02-12T21:51:41.186Z,8.44
2023-02-12T21:54:09.969Z,8.37
2023-02-12T21:56:37.974Z,8.34
2023-02-12T21:59:06.023Z,8.42
2023-02-12T22:01:35.210Z,8.36
2023-02-12T22:04:05.114Z,8.28
2023-02-12T22:06:33.173Z,8.39
2023-02-12T22:09:02.841Z,8.39
2023-02-12T22:11:30.851Z,8.37
2023-02-12T22:13:58.887Z,8.36
2023-02-12T22:16:27.739Z,8.14
2023-02-12T22:18:57.267Z,8.22
2023-02-12T22:21:27.359Z,8.24
2023-02-12T22:23:55.626Z,7.94
2023-02-12T22:26:24.830Z,8.15
2023-02-12T22:28:53.959Z,8.27
2023-02-12T22:31:24.284Z,8.14
2023-02-12T22:33:53.296Z,8.21
2023-02-12T22:36:23.013Z,8.25
2023-02-12T22:38:52.461Z,8.12
2023-02-12T22:41:20.534Z,8.18
2023-02-12T22:43:48.616Z,8.28
2023-02-12T22:46:16.912Z,8.02
2023-02-12T22:48:45.106Z,7.95
2023-02-12T22:51:14.284Z,8.04
2023-02-12T22:53:42.363Z,8.10
2023-02-12T22:56:12.336Z,7.98
2023-02-12T22:58:40.566Z,8.05
2023-02-12T23:01:09.620Z,8.12
2023-02-12T23:03:38.535Z,8.04
2023-02-12T23:06:07.722Z,8.11
2023-02-12T23:08:36.070Z,7.95
2023-02-12T23:11:05.933Z,7.87
2023-02-12T23:13:36.639Z,7.94
2023-02-12T23:16:05.023Z,7.92
2023-02-12T23:18:33.225Z,7.82
2023-02-12T23:21:01.595Z,7.83
2023-02-12T23:23:30.401Z,7.66
2023-02-12T23:25:58.580Z,7.67
2023-02-12T23:28:26.924Z,7.65
2023-02-12T23:30:58.891Z,7.67
2023-02-12T23:33:27.276Z,7.72
2023-02-12T23:35:55.249Z,7.79
2023-02-12T23:38:23.242Z,7.70
2023-02-12T23:40:51.717Z,7.76
2023-02-12T23:43:20.594Z,7.63
2023-02-12T23:45:48.920Z,7.62
2023-02-12T23:48:18.513Z,7.74
2023-02-12T23:50:49.743Z,7.70
2023-02-12T23:53:19.233Z,7.60
2023-02-12T23:55:47.384Z,7.39
2023-02-12T23:58:15.439Z,7.36
